< < Back
Terminal Aerodrome Forecast


Current Version              Previous Versions:   1  2  3  4  5  6  7  8  9  

Terminal Aerodrome Forecast

388
FTUS44 KOHX 291000 AAC
TAFCSV
TAF AMD
KCSV 291001Z 2910/3006 17004KT 5SM BR SCT006 BKN035
      TEMPO 2910/2913 2SM BR BKN005 OVC020
     FM291400 18004KT P6SM BKN030 BKN250
     FM291900 19007KT P6SM VCTS BKN050CB BKN100 BKN250
     FM300000 18004KT P6SM BKN100 BKN250=



Latest METAR

772
SAUS70 KWBC 291400 RRM
MTRCSV
METAR KCSV 291353Z AUTO 17008KT 10SM FEW012 22/18 A3025 RMK AO2 SLP226
T02170178


USA.gov is the U.S. government's official web portal to all federal, state and local government web resources and services.